sensor_id;sensor_type;location;lat;lon;timestamp;P1;durP1;ratioP1;P2;durP2;ratioP2
8622;SDS011;4349;47.552;8.904;2024-03-02T00:01:50;10.43;;;9.47;;
8622;SDS011;4349;47.552;8.904;2024-03-02T00:04:19;10.43;;;9.53;;
8622;SDS011;4349;47.552;8.904;2024-03-02T00:06:47;10.37;;;9.30;;
8622;SDS011;4349;47.552;8.904;2024-03-02T00:09:14;9.93;;;9.03;;
8622;SDS011;4349;47.552;8.904;2024-03-02T00:11:42;9.90;;;9.00;;
8622;SDS011;4349;47.552;8.904;2024-03-02T00:14:10;11.27;;;10.23;;
8622;SDS011;4349;47.552;8.904;2024-03-02T00:16:37;10.97;;;10.00;;
8622;SDS011;4349;47.552;8.904;2024-03-02T00:19:05;10.63;;;9.63;;
8622;SDS011;4349;47.552;8.904;2024-03-02T00:21:35;9.43;;;8.63;;
8622;SDS011;4349;47.552;8.904;2024-03-02T00:24:06;9.67;;;8.87;;
8622;SDS011;4349;47.552;8.904;2024-03-02T00:26:34;10.00;;;9.10;;
8622;SDS011;4349;47.552;8.904;2024-03-02T00:29:02;10.13;;;9.23;;
8622;SDS011;4349;47.552;8.904;2024-03-02T00:31:29;10.57;;;9.57;;
8622;SDS011;4349;47.552;8.904;2024-03-02T00:33:57;10.57;;;9.53;;
8622;SDS011;4349;47.552;8.904;2024-03-02T00:36:27;9.60;;;8.73;;
8622;SDS011;4349;47.552;8.904;2024-03-02T00:38:56;8.93;;;8.23;;
8622;SDS011;4349;47.552;8.904;2024-03-02T00:41:24;9.87;;;8.97;;
8622;SDS011;4349;47.552;8.904;2024-03-02T00:43:57;9.87;;;9.07;;
8622;SDS011;4349;47.552;8.904;2024-03-02T00:46:23;10.07;;;9.17;;
8622;SDS011;4349;47.552;8.904;2024-03-02T00:48:52;10.03;;;9.10;;
8622;SDS011;4349;47.552;8.904;2024-03-02T00:51:22;10.83;;;9.83;;
8622;SDS011;4349;47.552;8.904;2024-03-02T00:53:50;10.53;;;9.63;;
8622;SDS011;4349;47.552;8.904;2024-03-02T00:56:20;9.93;;;9.13;;
8622;SDS011;4349;47.552;8.904;2024-03-02T00:58:47;10.40;;;9.40;;
8622;SDS011;4349;47.552;8.904;2024-03-02T01:01:16;10.03;;;9.13;;
8622;SDS011;4349;47.552;8.904;2024-03-02T01:03:43;10.73;;;9.73;;
8622;SDS011;4349;47.552;8.904;2024-03-02T01:06:11;11.27;;;10.17;;
8622;SDS011;4349;47.552;8.904;2024-03-02T01:08:39;10.77;;;9.50;;
8622;SDS011;4349;47.552;8.904;2024-03-02T01:11:07;10.53;;;9.63;;
8622;SDS011;4349;47.552;8.904;2024-03-02T01:13:36;10.77;;;9.67;;
8622;SDS011;4349;47.552;8.904;2024-03-02T01:16:03;9.10;;;8.40;;
8622;SDS011;4349;47.552;8.904;2024-03-02T01:18:31;9.57;;;8.60;;
8622;SDS011;4349;47.552;8.904;2024-03-02T01:20:59;14.80;;;9.47;;
8622;SDS011;4349;47.552;8.904;2024-03-02T01:23:27;11.87;;;9.57;;
8622;SDS011;4349;47.552;8.904;2024-03-02T01:25:55;10.57;;;9.13;;
8622;SDS011;4349;47.552;8.904;2024-03-02T01:28:22;10.93;;;9.93;;
8622;SDS011;4349;47.552;8.904;2024-03-02T01:30:52;10.20;;;9.20;;
8622;SDS011;4349;47.552;8.904;2024-03-02T01:33:19;10.60;;;9.60;;
8622;SDS011;4349;47.552;8.904;2024-03-02T01:35:47;11.47;;;10.43;;
8622;SDS011;4349;47.552;8.904;2024-03-02T01:38:15;11.03;;;10.03;;
8622;SDS011;4349;47.552;8.904;2024-03-02T01:40:42;10.93;;;9.60;;
8622;SDS011;4349;47.552;8.904;2024-03-02T01:43:11;77.83;;;14.27;;
8622;SDS011;4349;47.552;8.904;2024-03-02T01:45:38;10.10;;;9.20;;
8622;SDS011;4349;47.552;8.904;2024-03-02T01:48:08;11.20;;;10.20;;
8622;SDS011;4349;47.552;8.904;2024-03-02T01:50:35;10.27;;;9.43;;
8622;SDS011;4349;47.552;8.904;2024-03-02T01:53:03;10.67;;;9.77;;
8622;SDS011;4349;47.552;8.904;2024-03-02T01:55:31;9.07;;;8.33;;
8622;SDS011;4349;47.552;8.904;2024-03-02T01:58:01;9.30;;;8.57;;
8622;SDS011;4349;47.552;8.904;2024-03-02T02:00:28;8.83;;;8.13;;
8622;SDS011;4349;47.552;8.904;2024-03-02T02:02:56;9.17;;;8.47;;
8622;SDS011;4349;47.552;8.904;2024-03-02T02:05:25;9.00;;;8.30;;
8622;SDS011;4349;47.552;8.904;2024-03-02T02:07:53;9.63;;;8.83;;
8622;SDS011;4349;47.552;8.904;2024-03-02T02:10:21;10.13;;;9.23;;
8622;SDS011;4349;47.552;8.904;2024-03-02T02:12:48;9.37;;;8.67;;
8622;SDS011;4349;47.552;8.904;2024-03-02T02:15:23;9.40;;;8.60;;
8622;SDS011;4349;47.552;8.904;2024-03-02T02:17:50;8.50;;;7.90;;
8622;SDS011;4349;47.552;8.904;2024-03-02T02:20:18;9.70;;;8.90;;
8622;SDS011;4349;47.552;8.904;2024-03-02T02:22:55;9.20;;;8.40;;
8622;SDS011;4349;47.552;8.904;2024-03-02T02:25:23;8.67;;;7.97;;
8622;SDS011;4349;47.552;8.904;2024-03-02T02:27:50;8.83;;;8.13;;
8622;SDS011;4349;47.552;8.904;2024-03-02T02:30:18;9.10;;;8.30;;
8622;SDS011;4349;47.552;8.904;2024-03-02T02:32:46;10.17;;;9.37;;
8622;SDS011;4349;47.552;8.904;2024-03-02T02:35:14;14.03;;;9.63;;
8622;SDS011;4349;47.552;8.904;2024-03-02T02:37:41;9.00;;;8.30;;
8622;SDS011;4349;47.552;8.904;2024-03-02T02:40:11;9.07;;;8.37;;
8622;SDS011;4349;47.552;8.904;2024-03-02T02:42:39;9.20;;;8.50;;
8622;SDS011;4349;47.552;8.904;2024-03-02T02:45:06;8.80;;;8.10;;
8622;SDS011;4349;47.552;8.904;2024-03-02T02:47:34;9.27;;;8.37;;
8622;SDS011;4349;47.552;8.904;2024-03-02T02:50:02;7.83;;;7.33;;
8622;SDS011;4349;47.552;8.904;2024-03-02T02:52:31;9.07;;;8.20;;
8622;SDS011;4349;47.552;8.904;2024-03-02T02:54:59;8.13;;;7.50;;
8622;SDS011;4349;47.552;8.904;2024-03-02T02:57:28;8.73;;;7.40;;
8622;SDS011;4349;47.552;8.904;2024-03-02T02:59:57;8.50;;;7.70;;
8622;SDS011;4349;47.552;8.904;2024-03-02T03:02:25;7.50;;;7.00;;
8622;SDS011;4349;47.552;8.904;2024-03-02T03:04:55;8.33;;;7.73;;
8622;SDS011;4349;47.552;8.904;2024-03-02T03:07:23;7.70;;;7.20;;
8622;SDS011;4349;47.552;8.904;2024-03-02T03:09:51;7.07;;;6.57;;
8622;SDS011;4349;47.552;8.904;2024-03-02T03:12:18;6.97;;;6.47;;
8622;SDS011;4349;47.552;8.904;2024-03-02T03:14:47;7.23;;;6.73;;
8622;SDS011;4349;47.552;8.904;2024-03-02T03:17:15;7.10;;;6.63;;
8622;SDS011;4349;47.552;8.904;2024-03-02T03:19:44;8.27;;;7.67;;
8622;SDS011;4349;47.552;8.904;2024-03-02T03:22:11;7.13;;;6.63;;
8622;SDS011;4349;47.552;8.904;2024-03-02T03:24:39;7.27;;;6.77;;
8622;SDS011;4349;47.552;8.904;2024-03-02T03:27:07;7.07;;;6.57;;
8622;SDS011;4349;47.552;8.904;2024-03-02T03:29:35;7.47;;;7.00;;
8622;SDS011;4349;47.552;8.904;2024-03-02T03:32:05;6.87;;;6.37;;
8622;SDS011;4349;47.552;8.904;2024-03-02T03:34:33;8.00;;;7.40;;
8622;SDS011;4349;47.552;8.904;2024-03-02T03:37:00;6.60;;;6.20;;
8622;SDS011;4349;47.552;8.904;2024-03-02T03:39:28;7.70;;;7.00;;
8622;SDS011;4349;47.552;8.904;2024-03-02T03:41:56;7.00;;;6.50;;
8622;SDS011;4349;47.552;8.904;2024-03-02T03:44:23;7.50;;;7.00;;
8622;SDS011;4349;47.552;8.904;2024-03-02T03:46:51;7.67;;;7.07;;
8622;SDS011;4349;47.552;8.904;2024-03-02T03:49:20;7.00;;;6.50;;
8622;SDS011;4349;47.552;8.904;2024-03-02T03:51:48;6.57;;;6.10;;
8622;SDS011;4349;47.552;8.904;2024-03-02T03:54:15;6.70;;;6.30;;
8622;SDS011;4349;47.552;8.904;2024-03-02T03:56:43;8.10;;;7.50;;
8622;SDS011;4349;47.552;8.904;2024-03-02T03:59:10;7.40;;;6.90;;
8622;SDS011;4349;47.552;8.904;2024-03-02T04:01:39;17.27;;;7.87;;
8622;SDS011;4349;47.552;8.904;2024-03-02T04:04:06;8.07;;;7.37;;
8622;SDS011;4349;47.552;8.904;2024-03-02T04:06:35;8.97;;;7.73;;
8622;SDS011;4349;47.552;8.904;2024-03-02T04:09:03;7.23;;;6.63;;
8622;SDS011;4349;47.552;8.904;2024-03-02T04:11:31;10.40;;;7.63;;
8622;SDS011;4349;47.552;8.904;2024-03-02T04:13:58;10.47;;;7.73;;
8622;SDS011;4349;47.552;8.904;2024-03-02T04:16:26;7.37;;;6.87;;
8622;SDS011;4349;47.552;8.904;2024-03-02T04:18:55;7.87;;;7.17;;
8622;SDS011;4349;47.552;8.904;2024-03-02T04:21:22;6.93;;;6.53;;
8622;SDS011;4349;47.552;8.904;2024-03-02T04:23:51;8.30;;;7.60;;
8622;SDS011;4349;47.552;8.904;2024-03-02T04:26:23;9.40;;;7.80;;
8622;SDS011;4349;47.552;8.904;2024-03-02T04:28:51;11.70;;;7.80;;
8622;SDS011;4349;47.552;8.904;2024-03-02T04:31:19;9.03;;;7.53;;
8622;SDS011;4349;47.552;8.904;2024-03-02T04:33:47;6.77;;;6.37;;
8622;SDS011;4349;47.552;8.904;2024-03-02T04:36:14;6.00;;;5.63;;
8622;SDS011;4349;47.552;8.904;2024-03-02T04:38:42;7.03;;;6.53;;
8622;SDS011;4349;47.552;8.904;2024-03-02T04:41:11;6.50;;;6.10;;
8622;SDS011;4349;47.552;8.904;2024-03-02T04:43:39;7.27;;;6.77;;
8622;SDS011;4349;47.552;8.904;2024-03-02T04:46:06;10.77;;;7.93;;
8622;SDS011;4349;47.552;8.904;2024-03-02T04:48:34;7.30;;;6.60;;
8622;SDS011;4349;47.552;8.904;2024-03-02T04:51:02;7.33;;;6.83;;
8622;SDS011;4349;47.552;8.904;2024-03-02T04:53:30;7.53;;;7.03;;
8622;SDS011;4349;47.552;8.904;2024-03-02T04:55:57;7.10;;;6.70;;
8622;SDS011;4349;47.552;8.904;2024-03-02T04:58:55;13.90;;;7.73;;
8622;SDS011;4349;47.552;8.904;2024-03-02T05:01:22;7.50;;;6.90;;
8622;SDS011;4349;47.552;8.904;2024-03-02T05:03:50;8.17;;;7.43;;
8622;SDS011;4349;47.552;8.904;2024-03-02T05:06:18;58.47;;;10.03;;
8622;SDS011;4349;47.552;8.904;2024-03-02T05:08:45;6.57;;;6.07;;
8622;SDS011;4349;47.552;8.904;2024-03-02T05:11:14;6.43;;;6.03;;
8622;SDS011;4349;47.552;8.904;2024-03-02T05:14:16;7.50;;;6.80;;
8622;SDS011;4349;47.552;8.904;2024-03-02T05:16:44;6.33;;;5.93;;
8622;SDS011;4349;47.552;8.904;2024-03-02T05:19:11;6.00;;;5.63;;
8622;SDS011;4349;47.552;8.904;2024-03-02T05:21:39;6.70;;;6.30;;
8622;SDS011;4349;47.552;8.904;2024-03-02T05:24:06;5.80;;;5.50;;
8622;SDS011;4349;47.552;8.904;2024-03-02T05:26:34;7.40;;;6.90;;
8622;SDS011;4349;47.552;8.904;2024-03-02T05:29:02;6.40;;;6.00;;
8622;SDS011;4349;47.552;8.904;2024-03-02T05:31:31;6.77;;;6.37;;
8622;SDS011;4349;47.552;8.904;2024-03-02T05:33:58;6.10;;;5.70;;
8622;SDS011;4349;47.552;8.904;2024-03-02T05:36:26;6.10;;;5.70;;
8622;SDS011;4349;47.552;8.904;2024-03-02T05:38:54;6.00;;;5.70;;
8622;SDS011;4349;47.552;8.904;2024-03-02T05:41:21;8.07;;;7.10;;
8622;SDS011;4349;47.552;8.904;2024-03-02T05:43:49;5.63;;;5.33;;
8622;SDS011;4349;47.552;8.904;2024-03-02T05:46:16;6.00;;;5.70;;
8622;SDS011;4349;47.552;8.904;2024-03-02T05:48:45;6.70;;;6.30;;
8622;SDS011;4349;47.552;8.904;2024-03-02T05:51:13;5.60;;;5.30;;
8622;SDS011;4349;47.552;8.904;2024-03-02T05:53:41;6.20;;;5.80;;
8622;SDS011;4349;47.552;8.904;2024-03-02T05:56:09;5.87;;;5.57;;
8622;SDS011;4349;47.552;8.904;2024-03-02T05:58:38;5.50;;;5.20;;
8622;SDS011;4349;47.552;8.904;2024-03-02T06:01:19;5.90;;;5.50;;
8622;SDS011;4349;47.552;8.904;2024-03-02T06:03:50;5.53;;;5.13;;
8622;SDS011;4349;47.552;8.904;2024-03-02T06:06:18;15.43;;;5.63;;
8622;SDS011;4349;47.552;8.904;2024-03-02T06:08:45;58.93;;;8.63;;
8622;SDS011;4349;47.552;8.904;2024-03-02T06:11:13;5.43;;;5.13;;
8622;SDS011;4349;47.552;8.904;2024-03-02T06:13:40;5.27;;;4.97;;
8622;SDS011;4349;47.552;8.904;2024-03-02T06:16:08;8.27;;;5.47;;
8622;SDS011;4349;47.552;8.904;2024-03-02T06:18:36;4.80;;;4.60;;
8622;SDS011;4349;47.552;8.904;2024-03-02T06:21:05;5.17;;;4.97;;
8622;SDS011;4349;47.552;8.904;2024-03-02T06:23:32;4.47;;;4.20;;
8622;SDS011;4349;47.552;8.904;2024-03-02T06:26:01;5.93;;;5.53;;
8622;SDS011;4349;47.552;8.904;2024-03-02T06:28:29;8.80;;;5.90;;
8622;SDS011;4349;47.552;8.904;2024-03-02T06:30:57;5.50;;;5.20;;
8622;SDS011;4349;47.552;8.904;2024-03-02T06:33:24;5.13;;;4.90;;
8622;SDS011;4349;47.552;8.904;2024-03-02T06:35:52;5.10;;;4.80;;
8622;SDS011;4349;47.552;8.904;2024-03-02T06:38:21;4.70;;;4.50;;
8622;SDS011;4349;47.552;8.904;2024-03-02T06:40:49;8.13;;;5.23;;
8622;SDS011;4349;47.552;8.904;2024-03-02T06:43:17;4.90;;;4.43;;
8622;SDS011;4349;47.552;8.904;2024-03-02T06:45:44;50.97;;;6.90;;
8622;SDS011;4349;47.552;8.904;2024-03-02T06:48:12;4.93;;;4.63;;
8622;SDS011;4349;47.552;8.904;2024-03-02T06:50:41;4.27;;;4.07;;
8622;SDS011;4349;47.552;8.904;2024-03-02T06:53:09;4.70;;;4.43;;
8622;SDS011;4349;47.552;8.904;2024-03-02T06:55:38;7.57;;;5.30;;
8622;SDS011;4349;47.552;8.904;2024-03-02T06:58:05;13.40;;;5.13;;
8622;SDS011;4349;47.552;8.904;2024-03-02T07:00:33;4.63;;;4.43;;
8622;SDS011;4349;47.552;8.904;2024-03-02T07:03:01;4.30;;;4.10;;
8622;SDS011;4349;47.552;8.904;2024-03-02T07:05:28;4.23;;;4.03;;
8622;SDS011;4349;47.552;8.904;2024-03-02T07:07:56;5.30;;;5.00;;
8622;SDS011;4349;47.552;8.904;2024-03-02T07:10:23;6.17;;;5.67;;
8622;SDS011;4349;47.552;8.904;2024-03-02T07:12:52;4.90;;;4.70;;
8622;SDS011;4349;47.552;8.904;2024-03-02T07:15:20;5.63;;;5.33;;
8622;SDS011;4349;47.552;8.904;2024-03-02T07:18:10;4.50;;;4.30;;
8622;SDS011;4349;47.552;8.904;2024-03-02T07:20:38;5.27;;;4.97;;
8622;SDS011;4349;47.552;8.904;2024-03-02T07:23:06;4.43;;;4.23;;
8622;SDS011;4349;47.552;8.904;2024-03-02T07:25:34;5.03;;;4.73;;
8622;SDS011;4349;47.552;8.904;2024-03-02T07:28:06;5.00;;;4.70;;
8622;SDS011;4349;47.552;8.904;2024-03-02T07:30:34;5.10;;;4.80;;
8622;SDS011;4349;47.552;8.904;2024-03-02T07:33:02;4.53;;;4.33;;
8622;SDS011;4349;47.552;8.904;2024-03-02T07:35:29;4.73;;;4.43;;
8622;SDS011;4349;47.552;8.904;2024-03-02T07:37:58;5.20;;;4.80;;
8622;SDS011;4349;47.552;8.904;2024-03-02T07:40:26;6.40;;;5.80;;
8622;SDS011;4349;47.552;8.904;2024-03-02T07:42:53;5.93;;;5.53;;
8622;SDS011;4349;47.552;8.904;2024-03-02T07:45:22;6.60;;;6.10;;
8622;SDS011;4349;47.552;8.904;2024-03-02T07:47:50;5.10;;;4.80;;
8622;SDS011;4349;47.552;8.904;2024-03-02T07:50:18;5.87;;;5.47;;
8622;SDS011;4349;47.552;8.904;2024-03-02T07:52:45;5.53;;;5.23;;
8622;SDS011;4349;47.552;8.904;2024-03-02T07:55:13;6.07;;;5.57;;
8622;SDS011;4349;47.552;8.904;2024-03-02T07:57:41;6.20;;;5.80;;
8622;SDS011;4349;47.552;8.904;2024-03-02T08:00:09;5.33;;;4.93;;
8622;SDS011;4349;47.552;8.904;2024-03-02T08:02:41;6.17;;;5.77;;
8622;SDS011;4349;47.552;8.904;2024-03-02T08:05:09;5.43;;;5.00;;
8622;SDS011;4349;47.552;8.904;2024-03-02T08:07:37;42.20;;;7.73;;
8622;SDS011;4349;47.552;8.904;2024-03-02T08:10:05;5.43;;;5.03;;
8622;SDS011;4349;47.552;8.904;2024-03-02T08:12:33;5.80;;;5.40;;
8622;SDS011;4349;47.552;8.904;2024-03-02T08:15:00;5.70;;;5.40;;
8622;SDS011;4349;47.552;8.904;2024-03-02T08:17:28;6.37;;;5.87;;
8622;SDS011;4349;47.552;8.904;2024-03-02T08:19:57;6.33;;;5.83;;
8622;SDS011;4349;47.552;8.904;2024-03-02T08:22:25;6.87;;;6.37;;
8622;SDS011;4349;47.552;8.904;2024-03-02T08:24:53;5.73;;;5.33;;
8622;SDS011;4349;47.552;8.904;2024-03-02T08:27:21;7.10;;;6.50;;
8622;SDS011;4349;47.552;8.904;2024-03-02T08:29:49;6.33;;;5.93;;
8622;SDS011;4349;47.552;8.904;2024-03-02T08:32:16;5.53;;;5.07;;
8622;SDS011;4349;47.552;8.904;2024-03-02T08:34:44;5.97;;;5.57;;
8622;SDS011;4349;47.552;8.904;2024-03-02T08:37:13;5.40;;;4.97;;
8622;SDS011;4349;47.552;8.904;2024-03-02T08:39:41;5.63;;;5.23;;
8622;SDS011;4349;47.552;8.904;2024-03-02T08:42:08;6.40;;;6.00;;
8622;SDS011;4349;47.552;8.904;2024-03-02T08:44:36;6.33;;;5.93;;
8622;SDS011;4349;47.552;8.904;2024-03-02T08:47:04;5.60;;;5.20;;
8622;SDS011;4349;47.552;8.904;2024-03-02T08:49:31;5.40;;;5.00;;
8622;SDS011;4349;47.552;8.904;2024-03-02T08:51:59;6.33;;;5.83;;
8622;SDS011;4349;47.552;8.904;2024-03-02T08:54:28;5.87;;;5.47;;
8622;SDS011;4349;47.552;8.904;2024-03-02T08:56:56;5.83;;;5.43;;
8622;SDS011;4349;47.552;8.904;2024-03-02T08:59:24;6.13;;;5.63;;
8622;SDS011;4349;47.552;8.904;2024-03-02T09:01:54;6.13;;;5.63;;
8622;SDS011;4349;47.552;8.904;2024-03-02T09:04:21;5.87;;;5.47;;
8622;SDS011;4349;47.552;8.904;2024-03-02T09:06:52;6.40;;;6.00;;
8622;SDS011;4349;47.552;8.904;2024-03-02T09:09:20;6.10;;;5.67;;
8622;SDS011;4349;47.552;8.904;2024-03-02T09:11:49;6.40;;;5.90;;
8622;SDS011;4349;47.552;8.904;2024-03-02T09:14:17;6.67;;;6.23;;
8622;SDS011;4349;47.552;8.904;2024-03-02T09:16:45;6.40;;;6.00;;
8622;SDS011;4349;47.552;8.904;2024-03-02T09:19:13;8.53;;;7.70;;
8622;SDS011;4349;47.552;8.904;2024-03-02T09:21:41;8.00;;;7.30;;
8622;SDS011;4349;47.552;8.904;2024-03-02T09:24:10;8.40;;;7.33;;
8622;SDS011;4349;47.552;8.904;2024-03-02T09:26:40;7.40;;;6.80;;
8622;SDS011;4349;47.552;8.904;2024-03-02T09:29:09;7.47;;;6.87;;
8622;SDS011;4349;47.552;8.904;2024-03-02T09:31:39;9.43;;;8.53;;
8622;SDS011;4349;47.552;8.904;2024-03-02T09:34:06;8.83;;;7.93;;
8622;SDS011;4349;47.552;8.904;2024-03-02T09:36:34;11.10;;;8.57;;
8622;SDS011;4349;47.552;8.904;2024-03-02T09:39:02;9.53;;;8.60;;
8622;SDS011;4349;47.552;8.904;2024-03-02T09:41:30;8.53;;;7.73;;
8622;SDS011;4349;47.552;8.904;2024-03-02T09:43:59;9.87;;;8.70;;
8622;SDS011;4349;47.552;8.904;2024-03-02T09:46:28;8.03;;;7.43;;
8622;SDS011;4349;47.552;8.904;2024-03-02T09:48:56;8.17;;;7.47;;
8622;SDS011;4349;47.552;8.904;2024-03-02T09:51:24;7.87;;;7.27;;
8622;SDS011;4349;47.552;8.904;2024-03-02T09:53:51;8.33;;;7.63;;
8622;SDS011;4349;47.552;8.904;2024-03-02T09:56:23;8.63;;;7.93;;
8622;SDS011;4349;47.552;8.904;2024-03-02T09:58:51;9.60;;;8.80;;
8622;SDS011;4349;47.552;8.904;2024-03-02T10:01:18;8.47;;;7.77;;
8622;SDS011;4349;47.552;8.904;2024-03-02T10:03:47;8.87;;;8.07;;
8622;SDS011;4349;47.552;8.904;2024-03-02T10:06:18;9.03;;;8.27;;
8622;SDS011;4349;47.552;8.904;2024-03-02T10:08:46;9.40;;;8.63;;
8622;SDS011;4349;47.552;8.904;2024-03-02T10:11:23;8.77;;;8.07;;
8622;SDS011;4349;47.552;8.904;2024-03-02T10:13:59;8.87;;;8.17;;
8622;SDS011;4349;47.552;8.904;2024-03-02T10:16:31;9.67;;;8.80;;
8622;SDS011;4349;47.552;8.904;2024-03-02T10:19:00;12.70;;;9.57;;
8622;SDS011;4349;47.552;8.904;2024-03-02T10:21:42;9.43;;;8.70;;
8622;SDS011;4349;47.552;8.904;2024-03-02T10:24:10;9.83;;;9.03;;
8622;SDS011;4349;47.552;8.904;2024-03-02T10:26:37;8.87;;;8.07;;
8622;SDS011;4349;47.552;8.904;2024-03-02T10:29:05;9.47;;;8.60;;
8622;SDS011;4349;47.552;8.904;2024-03-02T10:31:32;9.40;;;8.50;;
8622;SDS011;4349;47.552;8.904;2024-03-02T10:34:01;9.30;;;8.50;;
8622;SDS011;4349;47.552;8.904;2024-03-02T10:36:29;9.10;;;8.40;;
8622;SDS011;4349;47.552;8.904;2024-03-02T10:38:57;8.33;;;7.73;;
8622;SDS011;4349;47.552;8.904;2024-03-02T10:41:26;9.17;;;8.37;;
8622;SDS011;4349;47.552;8.904;2024-03-02T10:43:53;8.53;;;7.93;;
8622;SDS011;4349;47.552;8.904;2024-03-02T10:46:26;7.60;;;7.10;;
8622;SDS011;4349;47.552;8.904;2024-03-02T10:48:55;7.23;;;6.73;;
8622;SDS011;4349;47.552;8.904;2024-03-02T10:51:26;8.30;;;7.70;;
8622;SDS011;4349;47.552;8.904;2024-03-02T10:53:58;8.30;;;7.70;;
8622;SDS011;4349;47.552;8.904;2024-03-02T10:56:27;9.00;;;8.30;;
8622;SDS011;4349;47.552;8.904;2024-03-02T10:58:58;9.60;;;8.87;;
8622;SDS011;4349;47.552;8.904;2024-03-02T11:01:29;9.00;;;8.30;;
8622;SDS011;4349;47.552;8.904;2024-03-02T11:03:57;9.57;;;8.87;;
8622;SDS011;4349;47.552;8.904;2024-03-02T11:06:27;8.83;;;8.13;;
8622;SDS011;4349;47.552;8.904;2024-03-02T11:08:55;10.30;;;9.40;;
8622;SDS011;4349;47.552;8.904;2024-03-02T11:11:27;9.77;;;8.97;;
8622;SDS011;4349;47.552;8.904;2024-03-02T11:13:56;10.67;;;9.87;;
8622;SDS011;4349;47.552;8.904;2024-03-02T11:16:27;10.40;;;9.50;;
8622;SDS011;4349;47.552;8.904;2024-03-02T11:18:59;9.77;;;8.97;;
8622;SDS011;4349;47.552;8.904;2024-03-02T11:21:28;10.53;;;9.67;;
8622;SDS011;4349;47.552;8.904;2024-03-02T11:23:56;10.50;;;9.60;;
8622;SDS011;4349;47.552;8.904;2024-03-02T11:26:23;11.77;;;10.57;;
8622;SDS011;4349;47.552;8.904;2024-03-02T11:28:59;11.13;;;10.10;;
8622;SDS011;4349;47.552;8.904;2024-03-02T11:34:20;11.67;;;10.57;;
8622;SDS011;4349;47.552;8.904;2024-03-02T11:36:56;10.80;;;9.80;;
8622;SDS011;4349;47.552;8.904;2024-03-02T11:39:25;9.80;;;8.93;;
8622;SDS011;4349;47.552;8.904;2024-03-02T11:41:53;9.57;;;8.77;;
8622;SDS011;4349;47.552;8.904;2024-03-02T11:44:23;9.90;;;9.10;;
8622;SDS011;4349;47.552;8.904;2024-03-02T11:46:52;9.77;;;8.97;;
8622;SDS011;4349;47.552;8.904;2024-03-02T11:49:26;10.43;;;9.27;;
8622;SDS011;4349;47.552;8.904;2024-03-02T11:52:03;8.70;;;8.00;;
8622;SDS011;4349;47.552;8.904;2024-03-02T11:54:32;9.10;;;8.30;;
8622;SDS011;4349;47.552;8.904;2024-03-02T11:57:01;9.10;;;8.40;;
8622;SDS011;4349;47.552;8.904;2024-03-02T11:59:30;8.47;;;7.77;;
8622;SDS011;4349;47.552;8.904;2024-03-02T12:01:58;7.60;;;7.00;;
8622;SDS011;4349;47.552;8.904;2024-03-02T12:04:27;7.80;;;7.20;;
8622;SDS011;4349;47.552;8.904;2024-03-02T12:06:56;7.13;;;6.53;;
8622;SDS011;4349;47.552;8.904;2024-03-02T12:09:26;6.80;;;6.30;;
8622;SDS011;4349;47.552;8.904;2024-03-02T12:12:04;6.93;;;6.43;;
8622;SDS011;4349;47.552;8.904;2024-03-02T12:14:34;6.67;;;6.17;;
8622;SDS011;4349;47.552;8.904;2024-03-02T12:17:01;6.70;;;6.20;;
8622;SDS011;4349;47.552;8.904;2024-03-02T12:19:29;5.47;;;5.17;;
8622;SDS011;4349;47.552;8.904;2024-03-02T12:21:57;5.30;;;4.90;;
8622;SDS011;4349;47.552;8.904;2024-03-02T12:24:26;3.80;;;3.60;;
8622;SDS011;4349;47.552;8.904;2024-03-02T12:26:54;3.83;;;3.63;;
8622;SDS011;4349;47.552;8.904;2024-03-02T12:29:22;3.30;;;3.17;;
8622;SDS011;4349;47.552;8.904;2024-03-02T12:31:52;3.90;;;3.70;;
8622;SDS011;4349;47.552;8.904;2024-03-02T12:34:20;3.47;;;3.37;;
8622;SDS011;4349;47.552;8.904;2024-03-02T12:36:48;4.07;;;3.87;;
8622;SDS011;4349;47.552;8.904;2024-03-02T12:39:19;2.97;;;2.87;;
8622;SDS011;4349;47.552;8.904;2024-03-02T12:41:49;3.10;;;3.00;;
8622;SDS011;4349;47.552;8.904;2024-03-02T12:44:17;3.30;;;3.10;;
8622;SDS011;4349;47.552;8.904;2024-03-02T12:46:45;2.77;;;2.67;;
8622;SDS011;4349;47.552;8.904;2024-03-02T12:49:14;2.60;;;2.50;;
8622;SDS011;4349;47.552;8.904;2024-03-02T12:51:43;2.80;;;2.70;;
8622;SDS011;4349;47.552;8.904;2024-03-02T12:54:13;2.73;;;2.63;;
8622;SDS011;4349;47.552;8.904;2024-03-02T12:56:41;2.57;;;2.47;;
8622;SDS011;4349;47.552;8.904;2024-03-02T12:59:17;2.30;;;2.20;;
8622;SDS011;4349;47.552;8.904;2024-03-02T13:01:49;2.30;;;2.20;;
8622;SDS011;4349;47.552;8.904;2024-03-02T13:04:22;2.13;;;2.13;;
8622;SDS011;4349;47.552;8.904;2024-03-02T13:06:51;1.83;;;1.73;;
8622;SDS011;4349;47.552;8.904;2024-03-02T13:09:19;2.00;;;1.90;;
8622;SDS011;4349;47.552;8.904;2024-03-02T13:11:47;1.63;;;1.63;;
8622;SDS011;4349;47.552;8.904;2024-03-02T13:14:15;1.87;;;1.87;;
8622;SDS011;4349;47.552;8.904;2024-03-02T13:16:44;2.10;;;2.00;;
8622;SDS011;4349;47.552;8.904;2024-03-02T13:19:13;2.50;;;2.40;;
8622;SDS011;4349;47.552;8.904;2024-03-02T13:21:43;2.80;;;2.60;;
8622;SDS011;4349;47.552;8.904;2024-03-02T13:24:10;2.83;;;2.73;;
8622;SDS011;4349;47.552;8.904;2024-03-02T13:26:38;2.33;;;2.30;;
8622;SDS011;4349;47.552;8.904;2024-03-02T13:29:06;2.37;;;2.27;;
8622;SDS011;4349;47.552;8.904;2024-03-02T13:31:34;2.67;;;2.57;;
8622;SDS011;4349;47.552;8.904;2024-03-02T13:34:02;2.37;;;2.27;;
8622;SDS011;4349;47.552;8.904;2024-03-02T13:36:29;2.83;;;2.73;;
8622;SDS011;4349;47.552;8.904;2024-03-02T13:38:58;3.10;;;2.83;;
8622;SDS011;4349;47.552;8.904;2024-03-02T13:41:26;2.90;;;2.80;;
8622;SDS011;4349;47.552;8.904;2024-03-02T13:43:54;2.90;;;2.80;;
8622;SDS011;4349;47.552;8.904;2024-03-02T13:46:21;3.10;;;3.00;;
8622;SDS011;4349;47.552;8.904;2024-03-02T13:48:49;2.30;;;2.20;;
8622;SDS011;4349;47.552;8.904;2024-03-02T13:51:17;2.60;;;2.50;;
8622;SDS011;4349;47.552;8.904;2024-03-02T13:53:45;2.90;;;2.80;;
8622;SDS011;4349;47.552;8.904;2024-03-02T13:56:14;2.90;;;2.80;;
8622;SDS011;4349;47.552;8.904;2024-03-02T13:58:42;2.80;;;2.67;;
8622;SDS011;4349;47.552;8.904;2024-03-02T14:01:09;2.80;;;2.70;;
8622;SDS011;4349;47.552;8.904;2024-03-02T14:03:37;2.90;;;2.80;;
8622;SDS011;4349;47.552;8.904;2024-03-02T14:06:05;2.70;;;2.60;;
8622;SDS011;4349;47.552;8.904;2024-03-02T14:08:32;3.13;;;3.03;;
8622;SDS011;4349;47.552;8.904;2024-03-02T14:11:02;2.70;;;2.60;;
8622;SDS011;4349;47.552;8.904;2024-03-02T14:13:31;2.60;;;2.50;;
8622;SDS011;4349;47.552;8.904;2024-03-02T14:15:59;2.70;;;2.60;;
8622;SDS011;4349;47.552;8.904;2024-03-02T14:18:26;2.87;;;2.77;;
8622;SDS011;4349;47.552;8.904;2024-03-02T14:20:54;2.97;;;2.83;;
8622;SDS011;4349;47.552;8.904;2024-03-02T14:23:22;2.90;;;2.80;;
8622;SDS011;4349;47.552;8.904;2024-03-02T14:25:52;2.80;;;2.70;;
8622;SDS011;4349;47.552;8.904;2024-03-02T14:28:19;2.40;;;2.37;;
8622;SDS011;4349;47.552;8.904;2024-03-02T14:31:08;2.57;;;2.47;;
8622;SDS011;4349;47.552;8.904;2024-03-02T14:33:36;2.30;;;2.20;;
8622;SDS011;4349;47.552;8.904;2024-03-02T14:36:04;2.43;;;2.33;;
8622;SDS011;4349;47.552;8.904;2024-03-02T14:38:32;2.67;;;2.47;;
8622;SDS011;4349;47.552;8.904;2024-03-02T14:41:00;2.10;;;2.10;;
8622;SDS011;4349;47.552;8.904;2024-03-02T14:43:27;2.50;;;2.40;;
8622;SDS011;4349;47.552;8.904;2024-03-02T14:45:55;2.40;;;2.30;;
8622;SDS011;4349;47.552;8.904;2024-03-02T14:48:24;1.93;;;1.93;;
8622;SDS011;4349;47.552;8.904;2024-03-02T14:50:52;2.67;;;2.47;;
8622;SDS011;4349;47.552;8.904;2024-03-02T14:53:19;2.30;;;2.20;;
8622;SDS011;4349;47.552;8.904;2024-03-02T14:55:47;2.23;;;2.07;;
8622;SDS011;4349;47.552;8.904;2024-03-02T14:58:14;2.10;;;2.00;;
8622;SDS011;4349;47.552;8.904;2024-03-02T15:00:42;2.10;;;2.00;;
8622;SDS011;4349;47.552;8.904;2024-03-02T15:03:10;2.50;;;2.30;;
8622;SDS011;4349;47.552;8.904;2024-03-02T15:05:39;2.00;;;2.00;;
8622;SDS011;4349;47.552;8.904;2024-03-02T15:08:07;2.40;;;2.30;;
8622;SDS011;4349;47.552;8.904;2024-03-02T15:10:34;2.37;;;2.27;;
8622;SDS011;4349;47.552;8.904;2024-03-02T15:13:02;2.00;;;2.00;;
8622;SDS011;4349;47.552;8.904;2024-03-02T15:15:30;2.27;;;2.17;;
8622;SDS011;4349;47.552;8.904;2024-03-02T15:17:57;2.50;;;2.40;;
8622;SDS011;4349;47.552;8.904;2024-03-02T15:20:27;2.20;;;2.20;;
8622;SDS011;4349;47.552;8.904;2024-03-02T15:22:56;2.60;;;2.50;;
8622;SDS011;4349;47.552;8.904;2024-03-02T15:25:24;2.60;;;2.50;;